createdAt,value
2022-09-24T00:02:06.949Z,3.92
2022-09-24T00:04:35.780Z,3.22
2022-09-24T00:07:03.883Z,3.85
2022-09-24T00:09:32.007Z,4.88
2022-09-24T00:12:00.924Z,3.53
2022-09-24T00:14:30.414Z,3.50
2022-09-24T00:16:58.562Z,2.97
2022-09-24T00:19:26.754Z,3.15
2022-09-24T00:21:55.049Z,3.10
2022-09-24T00:24:41.498Z,3.15
2022-09-24T00:27:09.642Z,3.35
2022-09-24T00:29:39.084Z,3.13
2022-09-24T00:32:08.296Z,3.35
2022-09-24T00:34:36.421Z,3.17
2022-09-24T00:37:04.560Z,3.38
2022-09-24T00:39:32.579Z,3.20
2022-09-24T00:42:00.753Z,3.25
2022-09-24T00:44:54.870Z,2.90
2022-09-24T00:47:29.947Z,3.30
2022-09-24T00:50:10.844Z,3.80
2022-09-24T00:52:41.689Z,3.30
2022-09-24T00:55:10.781Z,3.30
2022-09-24T00:57:40.869Z,3.30
2022-09-24T01:00:14.661Z,3.80
2022-09-24T01:02:46.529Z,3.25
2022-09-24T01:05:14.835Z,3.83
2022-09-24T01:07:42.927Z,3.75
2022-09-24T01:10:11.807Z,4.47
2022-09-24T01:12:48.062Z,5.30
2022-09-24T01:15:26.220Z,4.93
2022-09-24T01:18:02.619Z,5.95
2022-09-24T01:21:00.711Z,5.20
2022-09-24T01:24:04.508Z,5.35
2022-09-24T01:26:49.955Z,5.15
2022-09-24T01:29:33.296Z,5.30
2022-09-24T01:32:08.197Z,5.70
2022-09-24T01:34:42.278Z,5.32
2022-09-24T01:37:10.960Z,5.03
2022-09-24T01:39:40.068Z,4.53
2022-09-24T01:42:10.907Z,3.88
2022-09-24T01:44:44.213Z,3.58
2022-09-24T01:47:18.436Z,4.00
2022-09-24T01:49:47.411Z,4.00
2022-09-24T01:52:20.335Z,3.80
2022-09-24T01:54:52.036Z,3.38
2022-09-24T01:57:25.206Z,4.10
2022-09-24T01:59:58.680Z,4.03
2022-09-24T02:02:34.094Z,3.88
2022-09-24T02:05:06.550Z,3.85
2022-09-24T02:07:40.175Z,3.97
2022-09-24T02:10:16.007Z,3.90
2022-09-24T02:12:47.703Z,3.85
2022-09-24T02:15:22.000Z,4.07
2022-09-24T02:17:55.705Z,3.72
2022-09-24T02:20:25.533Z,3.55
2022-09-24T02:22:57.334Z,3.88
2022-09-24T02:25:32.305Z,3.80
2022-09-24T02:28:00.527Z,3.90
2022-09-24T02:30:30.892Z,3.53
2022-09-24T02:32:59.495Z,3.80
2022-09-24T02:35:27.139Z,3.92
2022-09-24T02:37:55.192Z,3.65
2022-09-24T02:40:23.826Z,3.75
2022-09-24T02:42:51.989Z,3.85
2022-09-24T02:45:20.044Z,4.10
2022-09-24T02:47:49.731Z,4.15
2022-09-24T02:50:17.995Z,4.13
2022-09-24T02:52:46.189Z,4.47
2022-09-24T02:55:14.338Z,4.70
2022-09-24T02:57:42.621Z,4.38
2022-09-24T03:00:12.301Z,4.78
2022-09-24T03:02:40.457Z,4.25
2022-09-24T03:05:10.917Z,4.00
2022-09-24T03:07:39.099Z,4.10
2022-09-24T03:10:08.569Z,4.03
2022-09-24T03:12:36.985Z,4.30
2022-09-24T03:15:05.686Z,4.90
2022-09-24T03:17:33.956Z,5.40
2022-09-24T03:20:02.747Z,5.40
2022-09-24T03:22:32.115Z,5.25
2022-09-24T03:25:00.673Z,5.47
2022-09-24T03:27:28.728Z,5.43
2022-09-24T03:30:14.198Z,5.75
2022-09-24T03:32:42.262Z,5.43
2022-09-24T03:35:11.967Z,5.85
2022-09-24T03:37:47.063Z,5.47
2022-09-24T03:40:17.224Z,6.20
2022-09-24T03:42:45.441Z,6.13
2022-09-24T03:45:13.542Z,5.55
2022-09-24T03:47:42.339Z,5.53
2022-09-24T03:50:11.474Z,5.28
2022-09-24T03:52:41.335Z,5.65
2022-09-24T03:55:10.225Z,5.72
2022-09-24T03:57:38.237Z,5.10
2022-09-24T04:00:07.109Z,4.63
2022-09-24T04:02:36.713Z,5.20
2022-09-24T04:05:05.511Z,5.05
2022-09-24T04:07:33.640Z,4.90
2022-09-24T04:10:03.287Z,4.80
2022-09-24T04:12:31.364Z,5.30
2022-09-24T04:14:59.853Z,5.20
2022-09-24T04:17:31.312Z,5.05
2022-09-24T04:19:59.770Z,5.35
2022-09-24T04:22:29.094Z,5.13
2022-09-24T04:24:57.564Z,5.60
2022-09-24T04:27:27.265Z,5.30
2022-09-24T04:29:55.319Z,5.72
2022-09-24T04:32:23.511Z,5.68
2022-09-24T04:34:51.573Z,5.68
2022-09-24T04:37:19.764Z,5.68
2022-09-24T04:39:47.899Z,5.30
2022-09-24T04:42:19.541Z,5.65
2022-09-24T04:44:51.777Z,5.78
2022-09-24T04:47:25.893Z,5.45
2022-09-24T04:49:54.541Z,5.97
2022-09-24T04:52:29.677Z,5.35
2022-09-24T04:54:58.038Z,5.28
2022-09-24T04:57:26.181Z,5.47
2022-09-24T04:59:55.735Z,5.78
2022-09-24T05:02:24.806Z,5.15
2022-09-24T05:04:53.057Z,5.07
2022-09-24T05:07:21.099Z,5.32
2022-09-24T05:09:49.171Z,4.97
2022-09-24T05:12:18.777Z,4.88
2022-09-24T05:14:46.878Z,4.63
2022-09-24T05:17:16.571Z,5.10
2022-09-24T05:19:44.607Z,4.68
2022-09-24T05:22:12.823Z,4.15
2022-09-24T05:24:40.893Z,4.32
2022-09-24T05:27:09.704Z,4.55
2022-09-24T05:29:39.228Z,4.30
2022-09-24T05:32:09.406Z,4.47
2022-09-24T05:34:38.831Z,4.18
2022-09-24T05:37:07.180Z,4.72
2022-09-24T05:39:35.334Z,4.53
2022-09-24T05:42:04.382Z,4.60
2022-09-24T05:44:33.028Z,4.63
2022-09-24T05:47:01.297Z,5.40
2022-09-24T05:49:29.852Z,5.22
2022-09-24T05:51:59.787Z,5.95
2022-09-24T05:54:29.083Z,5.38
2022-09-24T05:56:57.964Z,5.38
2022-09-24T05:59:26.003Z,5.50
2022-09-24T06:01:54.349Z,5.50
2022-09-24T06:04:22.576Z,5.32
2022-09-24T06:06:52.289Z,5.22
2022-09-24T06:09:22.048Z,5.72
2022-09-24T06:11:51.052Z,5.20
2022-09-24T06:14:19.657Z,4.80
2022-09-24T06:16:47.845Z,4.93
2022-09-24T06:19:15.949Z,4.85
2022-09-24T06:21:44.046Z,4.75
2022-09-24T06:24:12.364Z,5.18
2022-09-24T06:26:41.809Z,5.35
2022-09-24T06:29:10.435Z,5.13
2022-09-24T06:31:38.682Z,5.13
2022-09-24T06:34:06.849Z,5.57
2022-09-24T06:36:35.654Z,5.90
2022-09-24T06:39:03.884Z,5.22
2022-09-24T06:41:32.257Z,5.97
2022-09-24T06:44:02.368Z,5.32
2022-09-24T06:46:30.927Z,5.68
2022-09-24T06:48:59.043Z,5.88
2022-09-24T06:51:27.123Z,5.00
2022-09-24T06:53:55.799Z,5.82
2022-09-24T06:56:25.097Z,4.85
2022-09-24T06:58:54.783Z,5.45
2022-09-24T07:01:25.077Z,5.55
2022-09-24T07:03:54.232Z,6.20
2022-09-24T07:06:22.780Z,6.25
2022-09-24T07:08:52.014Z,6.15
2022-09-24T07:11:20.386Z,6.57
2022-09-24T07:13:48.771Z,6.53
2022-09-24T07:16:17.447Z,6.60
2022-09-24T07:18:46.997Z,6.15
2022-09-24T07:21:15.193Z,6.50
2022-09-24T07:23:43.302Z,6.65
2022-09-24T07:26:12.016Z,6.20
2022-09-24T07:31:39.512Z,6.53
2022-09-24T07:34:21.643Z,6.35
2022-09-24T07:36:56.136Z,5.88
2022-09-24T07:39:30.609Z,6.97
2022-09-24T07:42:03.479Z,7.65
2022-09-24T07:44:35.601Z,8.35
2022-09-24T07:47:04.948Z,9.15
2022-09-24T07:49:37.782Z,9.68
2022-09-24T07:52:06.747Z,9.48
2022-09-24T07:54:35.644Z,9.48
2022-09-24T07:57:04.905Z,9.48
2022-09-24T07:59:38.677Z,9.32
2022-09-24T08:02:16.499Z,8.82
2022-09-24T08:04:50.317Z,9.10
2022-09-24T08:07:20.854Z,9.18
2022-09-24T08:09:50.844Z,9.38
2022-09-24T08:12:19.846Z,9.38
2022-09-24T08:14:47.928Z,8.70
2022-09-24T08:17:42.464Z,9.02
2022-09-24T08:20:14.275Z,8.93
2022-09-24T08:22:48.585Z,7.90
2022-09-24T08:25:21.758Z,8.70
2022-09-24T08:27:56.819Z,8.90
2022-09-24T08:30:31.875Z,8.32
2022-09-24T08:33:08.225Z,7.65
2022-09-24T08:35:48.709Z,8.50
2022-09-24T08:38:21.203Z,8.65
2022-09-24T08:40:58.594Z,7.72
2022-09-24T08:43:46.115Z,8.43
2022-09-24T08:46:40.140Z,8.65
2022-09-24T08:49:17.518Z,8.27
2022-09-24T08:52:00.549Z,8.07
2022-09-24T08:54:32.477Z,8.63
2022-09-24T08:57:11.327Z,9.07
2022-09-24T08:59:47.337Z,8.25
2022-09-24T09:02:35.527Z,8.70
2022-09-24T09:05:17.177Z,8.95
2022-09-24T09:07:59.333Z,8.35
2022-09-24T09:10:33.073Z,8.65
2022-09-24T09:13:11.408Z,8.40
2022-09-24T09:15:45.501Z,8.32
2022-09-24T09:18:20.917Z,8.57
2022-09-24T09:20:51.421Z,8.57
2022-09-24T09:23:32.769Z,8.35
2022-09-24T09:26:07.924Z,8.52
2022-09-24T09:28:37.401Z,8.57
2022-09-24T09:31:19.588Z,8.13
2022-09-24T09:34:05.224Z,8.02
2022-09-24T09:36:53.601Z,8.48
2022-09-24T09:39:40.557Z,9.52
2022-09-24T09:42:26.100Z,8.70
2022-09-24T09:44:55.294Z,8.77
2022-09-24T09:47:31.364Z,9.25
2022-09-24T09:50:06.220Z,8.93
2022-09-24T09:52:40.156Z,10.00
2022-09-24T09:55:21.785Z,9.57
2022-09-24T09:57:51.545Z,9.45
2022-09-24T10:00:35.098Z,8.52
2022-09-24T10:03:04.817Z,9.25
2022-09-24T10:05:33.326Z,9.05
2022-09-24T10:08:01.616Z,7.93
2022-09-24T10:10:31.371Z,7.10
2022-09-24T10:13:09.434Z,7.95
2022-09-24T10:15:49.014Z,8.23
2022-09-24T10:18:17.855Z,7.70
2022-09-24T10:20:49.515Z,7.65
2022-09-24T10:23:22.203Z,8.13
2022-09-24T10:26:00.587Z,7.82
2022-09-24T10:28:43.807Z,7.18
2022-09-24T10:31:14.901Z,7.10
2022-09-24T10:33:45.913Z,7.15
2022-09-24T10:36:16.947Z,6.97
2022-09-24T10:38:45.647Z,7.22
2022-09-24T10:41:27.150Z,6.38
2022-09-24T10:43:56.533Z,6.65
2022-09-24T10:46:48.994Z,6.15
2022-09-24T10:49:32.554Z,6.50
2022-09-24T10:52:13.364Z,6.82
2022-09-24T10:55:00.998Z,7.75
2022-09-24T10:57:39.126Z,7.15
2022-09-24T11:00:13.871Z,6.93
2022-09-24T11:03:04.224Z,7.25
2022-09-24T11:05:36.791Z,6.63
2022-09-24T11:08:16.633Z,6.95
2022-09-24T11:11:00.845Z,7.13
2022-09-24T11:13:40.711Z,7.20
2022-09-24T11:16:39.651Z,7.07
2022-09-24T11:19:17.225Z,6.80
2022-09-24T11:22:04.157Z,6.75
2022-09-24T11:24:42.060Z,6.22
2022-09-24T11:27:37.419Z,6.10
2022-09-24T11:30:14.029Z,6.18
2022-09-24T11:32:58.083Z,6.90
2022-09-24T11:35:46.164Z,7.18
2022-09-24T11:38:19.886Z,5.65
2022-09-24T11:41:05.335Z,4.63
2022-09-24T11:44:03.278Z,6.20
2022-09-24T11:46:49.046Z,5.45
2022-09-24T11:49:34.280Z,6.10
2022-09-24T11:52:09.268Z,5.80
2022-09-24T11:54:44.392Z,5.70
2022-09-24T11:57:17.684Z,5.70
2022-09-24T11:59:51.629Z,5.47
2022-09-24T12:02:25.981Z,6.30
2022-09-24T12:05:01.681Z,5.38
2022-09-24T12:07:37.785Z,5.43
2022-09-24T12:10:20.289Z,5.38
2022-09-24T12:12:51.010Z,5.38
2022-09-24T12:15:23.955Z,5.35
2022-09-24T12:17:58.299Z,5.30
2022-09-24T12:20:29.628Z,4.97
2022-09-24T12:23:02.932Z,4.95
2022-09-24T12:25:39.271Z,5.15
2022-09-24T12:28:11.015Z,5.53
2022-09-24T12:31:01.243Z,5.75
2022-09-24T12:33:36.741Z,4.90
2022-09-24T12:36:09.918Z,5.47
2022-09-24T12:38:42.742Z,5.10
2022-09-24T12:41:32.608Z,5.65
2022-09-24T12:44:09.236Z,5.50
2022-09-24T12:46:43.231Z,5.60
2022-09-24T12:49:31.225Z,4.60
2022-09-24T12:52:02.676Z,5.32
2022-09-24T12:54:32.548Z,5.28
2022-09-24T12:57:10.107Z,5.60
2022-09-24T12:59:52.477Z,4.40
2022-09-24T13:02:23.646Z,4.50
2022-09-24T13:05:14.956Z,4.35
2022-09-24T13:07:44.238Z,5.07
2022-09-24T13:10:22.496Z,3.90
2022-09-24T13:12:51.738Z,5.20
2022-09-24T13:15:35.319Z,4.78
2022-09-24T13:18:06.796Z,5.20
2022-09-24T13:20:37.895Z,5.13
2022-09-24T13:23:31.660Z,4.70
2022-09-24T13:26:02.893Z,4.38
2022-09-24T13:28:38.900Z,4.10
2022-09-24T13:31:17.106Z,4.93
2022-09-24T13:33:48.053Z,5.35
2022-09-24T13:36:20.052Z,4.65
2022-09-24T13:38:55.622Z,4.35
2022-09-24T13:41:30.148Z,4.43
2022-09-24T13:44:03.429Z,4.80
2022-09-24T13:46:32.928Z,4.57
2022-09-24T13:49:06.888Z,5.00
2022-09-24T13:51:39.311Z,5.07
2022-09-24T13:54:15.674Z,5.50
2022-09-24T13:56:44.755Z,4.70
2022-09-24T13:59:14.167Z,5.20
2022-09-24T14:01:43.967Z,5.07
2022-09-24T14:04:19.426Z,5.20
2022-09-24T14:06:52.601Z,5.45
2022-09-24T14:09:29.710Z,5.40
2022-09-24T14:11:59.548Z,5.25
2022-09-24T14:14:29.841Z,5.25
2022-09-24T14:17:08.187Z,5.30
2022-09-24T14:19:36.512Z,5.38
2022-09-24T14:22:08.120Z,5.30
2022-09-24T14:24:43.744Z,4.93
2022-09-24T14:27:17.605Z,4.60
2022-09-24T14:29:48.988Z,4.00
2022-09-24T14:32:23.938Z,4.57
2022-09-24T14:34:54.465Z,5.18
2022-09-24T14:37:27.756Z,4.13
2022-09-24T14:40:02.717Z,4.22
2022-09-24T14:42:37.120Z,4.32
2022-09-24T14:45:08.644Z,4.85
2022-09-24T14:47:38.376Z,5.10
2022-09-24T14:50:28.463Z,5.00
2022-09-24T14:53:00.618Z,5.75
2022-09-24T14:55:39.024Z,4.78
2022-09-24T14:58:07.515Z,4.22
2022-09-24T15:00:46.647Z,5.05
2022-09-24T15:03:18.827Z,5.22
2022-09-24T15:05:47.752Z,5.03
2022-09-24T15:08:28.388Z,5.22
2022-09-24T15:10:58.098Z,4.80
2022-09-24T15:13:28.223Z,5.45
2022-09-24T15:16:07.688Z,4.72
2022-09-24T15:18:36.511Z,4.78
2022-09-24T15:21:09.434Z,5.07
2022-09-24T15:23:39.132Z,4.90
2022-09-24T15:26:07.832Z,5.28
2022-09-24T15:28:36.132Z,4.95
2022-09-24T15:31:05.419Z,5.00
2022-09-24T15:33:35.183Z,4.88
2022-09-24T15:36:03.577Z,4.78
2022-09-24T15:38:32.331Z,5.18
2022-09-24T15:41:01.695Z,4.50
2022-09-24T15:43:30.124Z,4.78
2022-09-24T15:45:58.380Z,4.82
2022-09-24T15:48:26.594Z,5.20
2022-09-24T15:50:55.983Z,5.07
2022-09-24T15:53:28.059Z,5.00
2022-09-24T15:55:58.784Z,4.90
2022-09-24T15:58:28.831Z,4.78
2022-09-24T16:00:57.486Z,5.40
2022-09-24T16:03:28.130Z,4.50
2022-09-24T16:05:57.471Z,4.40
2022-09-24T16:08:25.659Z,5.10
2022-09-24T16:10:54.591Z,5.07
2022-09-24T16:13:23.294Z,5.30
2022-09-24T16:15:52.769Z,5.55
2022-09-24T16:18:25.962Z,5.72
2022-09-24T16:20:54.267Z,5.82
2022-09-24T16:23:23.674Z,5.20
2022-09-24T16:25:56.601Z,5.68
2022-09-24T16:28:26.443Z,5.85
2022-09-24T16:30:56.225Z,6.05
2022-09-24T16:33:26.725Z,5.10
2022-09-24T16:35:55.011Z,5.47
2022-09-24T16:38:23.511Z,5.10
2022-09-24T16:41:00.794Z,5.00
2022-09-24T16:43:29.211Z,4.95
2022-09-24T16:46:03.682Z,5.78
2022-09-24T16:48:32.768Z,5.63
2022-09-24T16:51:04.833Z,4.60
2022-09-24T16:53:34.084Z,4.72
2022-09-24T16:56:07.698Z,4.68
2022-09-24T16:58:36.360Z,4.90
2022-09-24T17:01:07.229Z,4.85
2022-09-24T17:03:35.986Z,5.28
2022-09-24T17:06:04.857Z,4.97
2022-09-24T17:08:48.154Z,4.85
2022-09-24T17:11:16.481Z,5.03
2022-09-24T17:13:47.415Z,5.03
2022-09-24T17:16:18.172Z,5.20
2022-09-24T17:18:47.028Z,5.28
2022-09-24T17:21:16.735Z,5.43
2022-09-24T17:23:44.984Z,5.03
2022-09-24T17:26:15.505Z,5.35
2022-09-24T17:28:45.276Z,4.90
2022-09-24T17:31:15.438Z,5.25
2022-09-24T17:33:47.867Z,5.13
2022-09-24T17:36:16.644Z,5.70
2022-09-24T17:38:46.138Z,5.55
2022-09-24T17:41:15.618Z,5.53
2022-09-24T17:43:43.810Z,6.28
2022-09-24T17:46:15.160Z,7.38
2022-09-24T17:48:46.708Z,7.63
2022-09-24T17:51:17.383Z,6.47
2022-09-24T17:53:45.935Z,6.38
2022-09-24T17:56:16.337Z,6.82
2022-09-24T17:58:46.809Z,6.90
2022-09-24T18:01:17.627Z,6.22
2022-09-24T18:03:48.754Z,6.57
2022-09-24T18:06:17.441Z,6.80
2022-09-24T18:08:46.615Z,12.40
2022-09-24T18:11:17.386Z,9.95
2022-09-24T18:13:46.386Z,8.98
2022-09-24T18:16:16.643Z,8.48
2022-09-24T18:18:45.758Z,6.88
2022-09-24T18:21:15.846Z,6.18
2022-09-24T18:23:44.230Z,7.78
2022-09-24T18:26:14.398Z,7.80
2022-09-24T18:28:44.263Z,8.15
2022-09-24T18:31:13.064Z,8.20
2022-09-24T18:33:43.369Z,4.07
2022-09-24T18:36:13.847Z,3.40
2022-09-24T18:38:44.250Z,2.47
2022-09-24T18:41:13.876Z,3.28
2022-09-24T18:43:42.638Z,3.85
2022-09-24T18:46:13.491Z,1.83
2022-09-24T18:48:43.866Z,1.88
2022-09-24T18:51:17.552Z,1.92
2022-09-24T18:53:52.528Z,1.98
2022-09-24T18:56:21.027Z,2.00
2022-09-24T18:58:56.082Z,2.22
2022-09-24T19:01:25.215Z,1.80
2022-09-24T19:03:53.758Z,1.98
2022-09-24T19:06:22.927Z,1.90
2022-09-24T19:08:52.444Z,2.40
2022-09-24T19:11:21.556Z,2.10
2022-09-24T19:13:52.078Z,2.33
2022-09-24T19:16:23.562Z,1.98
2022-09-24T19:18:52.555Z,2.00
2022-09-24T19:21:21.138Z,2.17
2022-09-24T19:23:50.381Z,2.33
2022-09-24T19:26:22.269Z,3.95
2022-09-24T19:28:51.550Z,3.10
2022-09-24T19:31:23.065Z,2.70
2022-09-24T19:33:54.248Z,2.03
2022-09-24T19:36:22.855Z,1.63
2022-09-24T19:38:51.889Z,2.15
2022-09-24T19:41:25.082Z,1.90
2022-09-24T19:43:55.510Z,2.10
2022-09-24T19:46:26.122Z,2.08
2022-09-24T19:48:56.761Z,1.98
2022-09-24T19:51:26.813Z,2.25
2022-09-24T19:53:56.806Z,2.47
2022-09-24T19:56:26.832Z,2.60
2022-09-24T19:58:56.849Z,2.55
2022-09-24T20:01:28.022Z,2.67
2022-09-24T20:03:57.060Z,2.55
2022-09-24T20:06:28.577Z,3.20
2022-09-24T20:08:57.196Z,4.10
2022-09-24T20:11:27.476Z,3.90
2022-09-24T20:13:57.218Z,3.25
2022-09-24T20:16:28.121Z,3.22
2022-09-24T20:18:58.026Z,2.85
2022-09-24T20:21:28.422Z,5.93
2022-09-24T20:23:58.544Z,4.47
2022-09-24T20:26:46.082Z,3.97
2022-09-24T20:29:16.005Z,6.75
2022-09-24T20:31:51.846Z,4.57
2022-09-24T20:34:21.373Z,6.00
2022-09-24T20:36:50.677Z,2.60
2022-09-24T20:39:19.615Z,4.28
2022-09-24T20:41:50.011Z,2.53
2022-09-24T20:44:18.851Z,2.00
2022-09-24T20:46:47.108Z,2.00
2022-09-24T20:49:22.201Z,1.70
2022-09-24T20:51:56.218Z,1.73
2022-09-24T20:54:25.376Z,2.00
2022-09-24T20:56:56.933Z,2.20
2022-09-24T20:59:26.542Z,1.85
2022-09-24T21:01:55.322Z,2.20
2022-09-24T21:04:24.848Z,2.30
2022-09-24T21:06:55.116Z,2.67
2022-09-24T21:09:23.357Z,2.80
2022-09-24T21:11:53.213Z,2.90
2022-09-24T21:14:23.252Z,2.30
2022-09-24T21:16:54.245Z,2.53
2022-09-24T21:19:22.616Z,3.42
2022-09-24T21:21:52.165Z,3.13
2022-09-24T21:24:21.052Z,3.45
2022-09-24T21:26:49.239Z,3.40
2022-09-24T21:29:20.622Z,3.53
2022-09-24T21:31:50.972Z,4.22
2022-09-24T21:34:21.487Z,4.00
2022-09-24T21:36:52.010Z,3.50
2022-09-24T21:39:22.897Z,3.58
2022-09-24T21:41:54.870Z,2.92
2022-09-24T21:44:23.044Z,3.47
2022-09-24T21:46:53.444Z,3.20
2022-09-24T21:49:23.346Z,3.38
2022-09-24T21:51:52.398Z,4.25
2022-09-24T21:54:20.908Z,4.45
2022-09-24T21:56:49.038Z,4.28
2022-09-24T21:59:35.800Z,4.45
2022-09-24T22:02:05.771Z,4.13
2022-09-24T22:04:34.073Z,4.47
2022-09-24T22:07:02.718Z,4.80
2022-09-24T22:09:33.192Z,4.60
2022-09-24T22:12:05.722Z,4.85
2022-09-24T22:14:34.552Z,4.53
2022-09-24T22:17:03.860Z,4.78
2022-09-24T22:19:34.386Z,5.65
2022-09-24T22:22:02.957Z,5.32
2022-09-24T22:24:33.642Z,5.38
2022-09-24T22:27:02.063Z,4.88
2022-09-24T22:29:30.423Z,5.32
2022-09-24T22:31:59.114Z,6.15
2022-09-24T22:34:45.528Z,5.75
2022-09-24T22:37:15.108Z,5.57
2022-09-24T22:39:43.476Z,5.35
2022-09-24T22:42:14.817Z,5.63
2022-09-24T22:44:42.869Z,6.13
2022-09-24T22:47:11.626Z,6.20
2022-09-24T22:49:42.987Z,6.88
2022-09-24T22:52:15.220Z,6.10
2022-09-24T22:54:44.213Z,6.57
2022-09-24T22:57:15.692Z,7.60
2022-09-24T22:59:48.482Z,7.65
2022-09-24T23:02:17.990Z,8.27
2022-09-24T23:04:49.952Z,7.65
2022-09-24T23:07:21.238Z,7.55
2022-09-24T23:09:53.413Z,7.20
2022-09-24T23:12:24.253Z,7.50
2022-09-24T23:14:54.390Z,7.45
2022-09-24T23:17:23.070Z,7.53
2022-09-24T23:19:51.982Z,8.13
2022-09-24T23:22:24.109Z,8.40
2022-09-24T23:25:01.687Z,8.13
2022-09-24T23:27:35.331Z,8.00
2022-09-24T23:30:09.842Z,7.70
2022-09-24T23:32:46.686Z,8.30
2022-09-24T23:35:18.887Z,8.98
2022-09-24T23:37:48.513Z,8.43
2022-09-24T23:40:16.861Z,8.43
2022-09-24T23:42:44.968Z,8.93
2022-09-24T23:45:13.055Z,8.02
2022-09-24T23:47:41.537Z,8.48
2022-09-24T23:50:10.149Z,8.45
2022-09-24T23:52:38.456Z,8.77
2022-09-24T23:55:08.666Z,8.52
2022-09-24T23:57:36.866Z,8.50
